Time;durP1;ratioP1;P1;durP2;ratioP2;P2;SDS_P1;SDS_P2;PMS_P1;PMS_P2;Temp;Humidity;BMP_temperature;BMP_pressure;BME280_temperature;BME280_humidity;BME280_pressure;Samples;Min_cycle;Max_cycle;Signal;HPM_P1;HPM_P2
2023/01/29 00:00:11;;;;;;;8.30;1.93;;;11.00;99.90;;;;;;5012275;28;20210;-70
2023/01/29 00:02:40;;;;;;;4.70;1.50;;;11.00;99.90;;;;;;5013838;28;20219;-69
2023/01/29 00:05:09;;;;;;;11.73;1.80;;;11.00;99.90;;;;;;5023847;28;20808;-69
2023/01/29 00:07:38;;;;;;;8.67;2.07;;;11.00;99.90;;;;;;5022421;28;20216;-70
2023/01/29 00:10:08;;;;;;;14.87;2.27;;;11.00;99.90;;;;;;5025234;28;20556;-69
2023/01/29 00:12:34;;;;;;;17.07;2.33;;;11.00;99.90;;;;;;5036753;28;20649;-69
2023/01/29 00:15:01;;;;;;;10.50;1.60;;;11.10;99.90;;;;;;5031199;28;20195;-69
2023/01/29 00:17:29;;;;;;;7.63;1.57;;;11.10;99.90;;;;;;5037565;28;20179;-69
2023/01/29 00:19:55;;;;;;;12.10;2.13;;;11.00;99.90;;;;;;5032617;28;20207;-69
2023/01/29 00:22:23;;;;;;;11.07;2.27;;;11.00;99.90;;;;;;5004120;28;20187;-69
2023/01/29 00:24:49;;;;;;;7.43;1.83;;;10.90;99.90;;;;;;5032367;28;20190;-69
2023/01/29 00:27:16;;;;;;;13.17;2.10;;;11.00;99.90;;;;;;5019843;28;20212;-69
2023/01/29 00:30:01;;;;;;;12.77;2.13;;;11.00;99.90;;;;;;5021734;28;20286;-69
2023/01/29 00:32:33;;;;;;;12.30;1.93;;;11.00;99.90;;;;;;5029575;28;20199;-69
2023/01/29 00:35:09;;;;;;;6.63;1.77;;;11.00;99.90;;;;;;5035626;28;20200;-69
2023/01/29 00:37:37;;;;;;;5.93;1.87;;;11.00;99.90;;;;;;5021249;28;20194;-69
2023/01/29 00:40:14;;;;;;;9.83;2.10;;;11.00;99.90;;;;;;5047549;28;20294;-69
2023/01/29 00:45:41;;;;;;;8.07;1.60;;;10.90;99.90;;;;;;5035671;28;20347;-70
2023/01/29 00:48:07;;;;;;;6.33;1.90;;;10.90;99.90;;;;;;5037594;28;20192;-69
2023/01/29 00:50:33;;;;;;;11.30;1.70;;;10.90;99.90;;;;;;5010783;28;20195;-69
2023/01/29 00:53:00;;;;;;;5.07;1.50;;;10.90;99.90;;;;;;5023678;28;20199;-69
2023/01/29 00:55:36;;;;;;;11.60;1.83;;;11.00;99.90;;;;;;5033866;28;20192;-69
2023/01/29 00:58:09;;;;;;;11.47;1.90;;;11.00;99.90;;;;;;5013235;28;20278;-69
2023/01/29 01:00:43;;;;;;;10.33;2.13;;;11.00;99.90;;;;;;5002255;28;20239;-71
2023/01/29 01:03:16;;;;;;;6.13;1.70;;;11.00;99.90;;;;;;5025659;28;20734;-71
2023/01/29 01:05:47;;;;;;;7.70;1.80;;;11.00;99.90;;;;;;5032965;28;20237;-71
2023/01/29 01:11:09;;;;;;;6.47;1.90;;;10.80;99.90;;;;;;5020675;28;20283;-71
2023/01/29 01:13:38;;;;;;;9.57;2.00;;;10.80;99.90;;;;;;5032198;28;20210;-71
2023/01/29 01:16:24;;;;;;;7.90;1.70;;;10.70;99.90;;;;;;5019632;28;20267;-71
2023/01/29 01:18:50;;;;;;;7.93;1.77;;;10.70;99.90;;;;;;5017190;28;20223;-71
2023/01/29 01:21:27;;;;;;;9.93;1.93;;;10.60;99.90;;;;;;5025887;28;20206;-71
2023/01/29 01:24:02;;;;;;;11.27;2.13;;;10.60;99.90;;;;;;5044726;28;20195;-71
2023/01/29 01:26:34;;;;;;;6.93;1.53;;;10.70;99.90;;;;;;5021457;28;20645;-71
2023/01/29 01:29:08;;;;;;;10.00;2.00;;;10.60;99.90;;;;;;5017767;28;20187;-71
2023/01/29 01:31:39;;;;;;;8.87;1.87;;;10.60;99.90;;;;;;5044072;28;20192;-71
2023/01/29 01:34:08;;;;;;;13.03;2.57;;;10.60;99.90;;;;;;5034489;28;20557;-71
2023/01/29 01:36:38;;;;;;;7.67;1.90;;;10.50;99.90;;;;;;5032131;28;20206;-71
2023/01/29 01:39:08;;;;;;;7.80;1.73;;;10.50;99.90;;;;;;5032475;28;20661;-71
2023/01/29 01:41:34;;;;;;;9.53;2.00;;;10.40;99.90;;;;;;5020515;28;20199;-71
2023/01/29 01:44:26;;;;;;;6.87;1.50;;;10.50;99.90;;;;;;5027517;28;20191;-71
2023/01/29 01:47:00;;;;;;;8.77;1.97;;;10.50;99.90;;;;;;5038535;28;20666;-73
2023/01/29 01:49:31;;;;;;;6.27;1.67;;;10.50;99.90;;;;;;5022057;28;20258;-74
2023/01/29 01:52:01;;;;;;;8.50;1.50;;;10.50;99.90;;;;;;5030748;28;20665;-73
2023/01/29 01:54:34;;;;;;;9.50;1.87;;;10.40;99.90;;;;;;5017947;28;20846;-73
2023/01/29 01:57:23;;;;;;;7.73;2.20;;;10.40;99.90;;;;;;5039035;28;20211;-73
2023/01/29 02:00:09;;;;;;;10.63;1.90;;;10.50;99.90;;;;;;4998701;28;20200;-71
2023/01/29 02:11:58;;;;;;;9.53;1.80;;;10.50;99.90;;;;;;5031167;28;20370;-73
2023/01/29 02:14:25;;;;;;;11.13;2.03;;;10.40;99.90;;;;;;5034047;28;20195;-73
2023/01/29 02:16:53;;;;;;;9.80;2.07;;;10.50;99.90;;;;;;5038754;28;20285;-73
2023/01/29 02:20:00;;;;;;;9.33;1.80;;;10.50;99.90;;;;;;5025820;28;20200;-73
2023/01/29 02:23:27;;;;;;;6.30;2.17;;;10.60;99.90;;;;;;5035643;28;20202;-73
2023/01/29 02:26:21;;;;;;;12.10;2.10;;;10.60;99.90;;;;;;5028446;28;20199;-73
2023/01/29 02:29:21;;;;;;;8.93;1.77;;;10.70;99.90;;;;;;5021181;28;20203;-73
2023/01/29 02:32:14;;;;;;;6.57;1.70;;;10.70;99.90;;;;;;5047182;28;20678;-73
2023/01/29 02:35:33;;;;;;;8.20;1.87;;;10.70;99.90;;;;;;5029569;28;20719;-73
2023/01/29 02:38:33;;;;;;;4.77;1.50;;;10.70;99.90;;;;;;5031695;28;20191;-72
2023/01/29 02:41:13;;;;;;;8.97;1.80;;;10.70;99.90;;;;;;5020584;28;20821;-73
2023/01/29 02:44:11;;;;;;;5.60;1.60;;;10.70;99.90;;;;;;5019868;28;20192;-72
2023/01/29 02:47:16;;;;;;;6.13;1.77;;;10.80;99.90;;;;;;5014385;28;20187;-73
2023/01/29 02:49:49;;;;;;;6.70;1.60;;;10.80;99.90;;;;;;5029648;28;20198;-73
2023/01/29 02:52:33;;;;;;;9.23;2.10;;;10.70;99.90;;;;;;5014626;28;20274;-73
2023/01/29 02:55:23;;;;;;;7.23;1.70;;;10.80;99.90;;;;;;5030205;28;20202;-73
2023/01/29 02:58:16;;;;;;;6.47;2.27;;;10.80;99.90;;;;;;5032424;28;20695;-73
2023/01/29 03:00:57;;;;;;;8.97;2.17;;;10.80;99.90;;;;;;5027715;28;20191;-72
2023/01/29 03:03:42;;;;;;;10.70;1.73;;;10.80;99.90;;;;;;5020047;28;20187;-74
2023/01/29 03:06:43;;;;;;;9.73;1.63;;;10.80;99.90;;;;;;5034004;28;20204;-71
2023/01/29 03:09:32;;;;;;;8.37;2.20;;;10.80;99.90;;;;;;5019565;28;20197;-73
2023/01/29 03:12:32;;;;;;;8.20;2.23;;;10.80;99.90;;;;;;5041413;28;20601;-73
2023/01/29 03:15:11;;;;;;;10.47;1.80;;;10.80;99.90;;;;;;5034113;28;20270;-72
2023/01/29 03:18:15;;;;;;;3.83;1.50;;;10.80;99.90;;;;;;5026406;28;20199;-73
2023/01/29 03:20:50;;;;;;;5.73;1.57;;;10.70;99.90;;;;;;5006627;28;20226;-73
2023/01/29 03:32:07;;;;;;;6.73;1.60;;;10.70;99.90;;;;;;5041306;28;20199;-72
2023/01/29 03:35:02;;;;;;;6.93;2.17;;;10.60;99.90;;;;;;5042294;28;20191;-73
2023/01/29 03:37:39;;;;;;;14.57;2.33;;;10.60;99.90;;;;;;5021758;28;20678;-73
2023/01/29 03:40:09;;;;;;;6.67;1.97;;;10.50;99.90;;;;;;5002903;28;20297;-73
2023/01/29 03:43:22;;;;;;;8.90;2.10;;;10.50;99.90;;;;;;5017747;28;20176;-72
2023/01/29 03:46:28;;;;;;;6.07;1.60;;;10.50;99.90;;;;;;5030202;28;20582;-73
2023/01/29 03:49:17;;;;;;;7.00;2.03;;;10.60;99.90;;;;;;5030064;28;20191;-73
2023/01/29 03:52:24;;;;;;;5.23;1.63;;;10.60;99.90;;;;;;5004130;28;20188;-73
2023/01/29 03:55:12;;;;;;;8.37;1.80;;;10.60;99.90;;;;;;4995577;28;20210;-73
2023/01/29 03:58:17;;;;;;;9.27;1.70;;;10.60;99.90;;;;;;5011153;28;20194;-73
2023/01/29 04:01:01;;;;;;;6.53;2.10;;;10.70;99.90;;;;;;5015857;28;20526;-72
2023/01/29 04:03:41;;;;;;;7.23;1.93;;;10.70;99.90;;;;;;5026320;28;20192;-72
2023/01/29 04:06:33;;;;;;;7.20;2.00;;;10.70;99.90;;;;;;5027636;28;20206;-73
2023/01/29 04:09:19;;;;;;;9.27;2.30;;;10.80;99.90;;;;;;5021167;28;20191;-73
2023/01/29 04:12:15;;;;;;;6.67;1.90;;;10.70;99.90;;;;;;5034382;28;20556;-73
2023/01/29 04:14:45;;;;;;;6.23;1.90;;;10.80;99.90;;;;;;5039126;28;20539;-73
2023/01/29 04:17:43;;;;;;;8.67;2.00;;;10.80;99.90;;;;;;5037978;28;20187;-73
2023/01/29 04:20:10;;;;;;;3.77;1.80;;;10.80;99.90;;;;;;5033059;28;20212;-73
2023/01/29 04:22:42;;;;;;;7.20;1.80;;;10.70;99.90;;;;;;5018798;28;20617;-72
2023/01/29 04:25:30;;;;;;;5.27;1.80;;;10.70;99.90;;;;;;5026045;28;20544;-73
2023/01/29 04:28:33;;;;;;;6.77;2.17;;;10.60;99.90;;;;;;5037974;28;20198;-73
2023/01/29 04:31:12;;;;;;;8.90;2.23;;;10.60;99.90;;;;;;5014258;28;20716;-72
2023/01/29 04:34:12;;;;;;;7.03;2.20;;;10.60;99.90;;;;;;5031107;28;20186;-73
2023/01/29 04:37:19;;;;;;;6.30;1.90;;;10.60;99.90;;;;;;5034433;28;20192;-73
2023/01/29 04:40:10;;;;;;;5.77;1.90;;;10.40;99.90;;;;;;5042382;28;20203;-73
2023/01/29 04:42:52;;;;;;;6.13;1.60;;;10.40;99.90;;;;;;5043034;28;20664;-73
2023/01/29 04:46:12;;;;;;;8.87;1.80;;;10.20;99.90;;;;;;5029329;28;20184;-72
2023/01/29 04:49:20;;;;;;;6.50;2.17;;;10.20;99.90;;;;;;5011198;28;20192;-73
2023/01/29 04:52:12;;;;;;;7.30;1.80;;;10.10;99.90;;;;;;5032922;28;20192;-73
2023/01/29 04:55:09;;;;;;;9.60;2.20;;;10.20;99.90;;;;;;5037590;28;20600;-73
2023/01/29 04:58:10;;;;;;;3.40;1.50;;;10.10;99.90;;;;;;5030679;28;20257;-73
2023/01/29 05:00:48;;;;;;;7.57;2.00;;;10.10;99.90;;;;;;5016776;28;20244;-73
2023/01/29 05:03:15;;;;;;;8.23;1.90;;;10.00;99.90;;;;;;5028249;28;20188;-73
2023/01/29 05:05:59;;;;;;;5.60;2.20;;;10.10;99.90;;;;;;5044433;28;20186;-73
2023/01/29 05:08:37;;;;;;;7.53;2.17;;;10.10;99.90;;;;;;5033795;28;20704;-73
2023/01/29 05:11:12;;;;;;;7.03;2.00;;;10.10;99.90;;;;;;5042187;28;20202;-72
2023/01/29 05:13:42;;;;;;;3.93;1.90;;;10.00;99.90;;;;;;5038196;28;20209;-73
2023/01/29 05:16:25;;;;;;;3.37;1.77;;;10.10;99.90;;;;;;4998748;28;20349;-72
2023/01/29 05:18:53;;;;;;;5.43;1.73;;;10.00;99.90;;;;;;5033713;28;20208;-73
2023/01/29 05:21:23;;;;;;;3.70;1.60;;;10.00;99.90;;;;;;5036930;28;20242;-72
2023/01/29 05:24:26;;;;;;;8.57;1.90;;;10.10;99.90;;;;;;5036433;28;20529;-73
2023/01/29 05:29:45;;;;;;;4.53;2.00;;;10.10;99.90;;;;;;5028890;28;21639;-73
2023/01/29 05:32:19;;;;;;;5.00;1.90;;;10.10;99.90;;;;;;5039128;28;20188;-73
2023/01/29 05:34:57;;;;;;;3.93;1.60;;;10.00;99.90;;;;;;5022155;28;20203;-74
2023/01/29 05:37:32;;;;;;;5.97;2.00;;;10.00;99.90;;;;;;5030441;28;20362;-73
2023/01/29 05:39:59;;;;;;;5.30;2.00;;;10.00;99.90;;;;;;5027788;28;20294;-72
2023/01/29 05:42:28;;;;;;;4.97;1.77;;;10.00;99.90;;;;;;5035632;28;20189;-73
2023/01/29 05:44:57;;;;;;;5.93;1.80;;;9.90;99.90;;;;;;5035948;28;20192;-73
2023/01/29 05:47:30;;;;;;;3.93;1.97;;;9.90;99.90;;;;;;5027809;28;20192;-72
2023/01/29 05:50:06;;;;;;;4.87;1.93;;;9.90;99.90;;;;;;5038040;28;20231;-73
2023/01/29 05:52:35;;;;;;;6.10;1.60;;;9.90;99.90;;;;;;5045219;28;20705;-72
2023/01/29 05:55:10;;;;;;;6.10;1.70;;;9.80;99.90;;;;;;5032562;28;20271;-73
2023/01/29 05:57:41;;;;;;;6.20;1.90;;;9.80;99.90;;;;;;5021385;28;20579;-73
2023/01/29 06:00:08;;;;;;;4.20;1.57;;;9.80;99.90;;;;;;5022734;28;20203;-73
2023/01/29 06:02:34;;;;;;;4.77;2.30;;;9.80;99.90;;;;;;5001078;28;20719;-73
2023/01/29 06:05:01;;;;;;;2.53;1.70;;;9.80;99.90;;;;;;5035914;28;20192;-73
2023/01/29 06:07:32;;;;;;;4.60;1.80;;;9.80;99.90;;;;;;5009603;28;20191;-72
2023/01/29 06:09:59;;;;;;;4.93;1.83;;;9.90;99.90;;;;;;5022448;28;20184;-73
2023/01/29 06:12:32;;;;;;;4.73;1.70;;;9.90;99.90;;;;;;5023864;28;20612;-71
2023/01/29 06:14:59;;;;;;;5.47;1.70;;;9.90;99.90;;;;;;5029429;28;20200;-71
2023/01/29 06:17:32;;;;;;;3.87;1.60;;;10.00;99.90;;;;;;5045782;28;20192;-70
2023/01/29 06:19:58;;;;;;;5.63;2.00;;;10.00;99.90;;;;;;5028198;28;20698;-71
2023/01/29 06:22:25;;;;;;;3.63;2.20;;;10.10;99.90;;;;;;5032689;28;20183;-71
2023/01/29 06:24:57;;;;;;;5.43;1.80;;;10.20;99.90;;;;;;5035762;28;20188;-71
2023/01/29 06:27:24;;;;;;;3.73;1.83;;;10.30;99.90;;;;;;5038448;28;20191;-71
2023/01/29 06:29:57;;;;;;;4.07;1.80;;;10.30;99.90;;;;;;5032723;28;20200;-71
2023/01/29 06:32:28;;;;;;;3.57;1.67;;;10.40;99.90;;;;;;5010650;28;20191;-71
2023/01/29 06:34:59;;;;;;;4.67;2.00;;;10.40;99.90;;;;;;5000859;28;20188;-71
2023/01/29 06:37:32;;;;;;;4.43;1.80;;;10.50;99.90;;;;;;5024568;28;20536;-71
2023/01/29 06:40:03;;;;;;;3.43;1.60;;;10.60;99.90;;;;;;5039540;28;20207;-70
2023/01/29 06:42:34;;;;;;;5.63;1.70;;;10.60;99.90;;;;;;5030863;28;20585;-71
2023/01/29 06:45:02;;;;;;;5.13;1.60;;;10.70;99.90;;;;;;5011754;28;20633;-71
2023/01/29 06:47:35;;;;;;;2.77;1.67;;;10.70;99.90;;;;;;5018637;28;20219;-73
2023/01/29 06:50:07;;;;;;;5.07;1.70;;;10.80;99.90;;;;;;5046518;28;20718;-73
2023/01/29 06:52:36;;;;;;;6.37;1.70;;;10.80;99.90;;;;;;5015290;28;20199;-73
2023/01/29 06:55:11;;;;;;;2.97;1.40;;;10.80;99.90;;;;;;5025597;28;20190;-73
2023/01/29 06:57:38;;;;;;;4.90;1.60;;;10.80;99.90;;;;;;5019647;28;20182;-73
2023/01/29 07:00:08;;;;;;;5.47;1.33;;;10.80;99.90;;;;;;5032980;28;20786;-73
2023/01/29 07:02:35;;;;;;;6.17;1.73;;;10.90;99.90;;;;;;5025062;28;20206;-73
2023/01/29 07:05:02;;;;;;;3.93;1.63;;;10.90;99.90;;;;;;5008933;28;20199;-73
2023/01/29 07:07:35;;;;;;;3.83;1.40;;;10.90;99.90;;;;;;5030711;28;20218;-73
2023/01/29 07:10:02;;;;;;;6.10;1.70;;;10.90;99.90;;;;;;5006676;28;20220;-73
2023/01/29 07:12:32;;;;;;;3.60;1.40;;;11.00;99.90;;;;;;5034459;28;20199;-73
2023/01/29 07:15:01;;;;;;;6.90;1.57;;;11.00;99.90;;;;;;5031557;28;20282;-73
2023/01/29 07:17:33;;;;;;;9.27;1.80;;;11.10;99.90;;;;;;5030092;28;20191;-73
2023/01/29 07:20:03;;;;;;;4.63;1.70;;;11.00;99.90;;;;;;5038326;28;20290;-73
2023/01/29 07:22:35;;;;;;;5.43;1.60;;;11.10;99.90;;;;;;5027740;28;20318;-73
2023/01/29 07:25:07;;;;;;;2.43;1.20;;;11.10;99.90;;;;;;5015559;28;20913;-72
2023/01/29 07:27:36;;;;;;;6.73;1.20;;;11.20;99.90;;;;;;4993091;28;20277;-73
2023/01/29 07:30:12;;;;;;;4.57;1.47;;;11.30;99.90;;;;;;5011239;28;20184;-73
2023/01/29 07:32:46;;;;;;;4.27;1.43;;;11.40;99.90;;;;;;5034958;28;20313;-73
2023/01/29 07:35:21;;;;;;;6.73;1.40;;;11.40;99.90;;;;;;5041353;28;20187;-72
2023/01/29 07:37:55;;;;;;;6.40;1.43;;;11.50;99.90;;;;;;5021477;28;20551;-73
2023/01/29 07:40:24;;;;;;;5.30;1.47;;;11.60;99.90;;;;;;5033538;28;20208;-73
2023/01/29 07:43:00;;;;;;;4.80;1.53;;;11.60;99.90;;;;;;5023950;28;20227;-73
2023/01/29 07:45:33;;;;;;;4.70;1.33;;;11.60;99.90;;;;;;5034679;28;20224;-73
2023/01/29 07:48:03;;;;;;;6.27;1.67;;;11.70;99.90;;;;;;5027615;28;20562;-73
2023/01/29 07:50:35;;;;;;;6.27;1.30;;;11.70;99.90;;;;;;5016588;28;20186;-73
2023/01/29 07:53:06;;;;;;;4.90;1.50;;;11.90;99.90;;;;;;5016714;28;20186;-72
2023/01/29 07:55:35;;;;;;;4.80;1.50;;;12.00;99.90;;;;;;5018287;28;20210;-73
2023/01/29 07:58:06;;;;;;;2.97;1.37;;;12.00;99.90;;;;;;5013093;28;20585;-73
2023/01/29 08:00:33;;;;;;;3.63;1.63;;;11.90;99.90;;;;;;5031155;28;20253;-73
2023/01/29 08:03:17;;;;;;;5.30;1.47;;;12.00;99.90;;;;;;5009925;28;20272;-73
2023/01/29 08:05:47;;;;;;;2.47;1.10;;;12.00;99.90;;;;;;5010331;28;20200;-73
2023/01/29 08:08:14;;;;;;;6.20;1.50;;;12.00;99.90;;;;;;5024388;28;20231;-72
2023/01/29 08:10:42;;;;;;;4.70;1.50;;;12.10;99.90;;;;;;5007663;28;20192;-73
2023/01/29 08:13:11;;;;;;;3.03;1.40;;;12.10;99.90;;;;;;5036668;28;20176;-72
2023/01/29 08:15:52;;;;;;;4.90;1.30;;;12.20;99.90;;;;;;5037581;28;20230;-73
2023/01/29 08:18:26;;;;;;;2.50;1.20;;;12.30;99.90;;;;;;5034732;28;20286;-73
2023/01/29 08:21:04;;;;;;;3.60;1.27;;;12.20;99.90;;;;;;5030338;28;20218;-73
2023/01/29 08:23:31;;;;;;;4.97;1.30;;;12.30;99.90;;;;;;5033204;28;20701;-72
2023/01/29 08:26:06;;;;;;;4.43;1.30;;;12.30;99.90;;;;;;5028410;28;20199;-73
2023/01/29 08:28:39;;;;;;;8.30;1.60;;;12.40;99.90;;;;;;5038232;28;20817;-73
2023/01/29 08:31:22;;;;;;;3.70;1.30;;;12.50;99.90;;;;;;5029698;28;20715;-73
2023/01/29 08:33:49;;;;;;;4.20;1.00;;;12.50;99.90;;;;;;5031709;28;20192;-73
2023/01/29 08:36:22;;;;;;;6.60;1.27;;;12.50;99.90;;;;;;5014445;28;20613;-73
2023/01/29 08:38:49;;;;;;;4.70;1.50;;;12.50;99.90;;;;;;5033867;28;20215;-72
2023/01/29 08:41:22;;;;;;;6.07;1.97;;;12.60;99.90;;;;;;5013364;28;20643;-73
2023/01/29 08:43:51;;;;;;;4.27;1.10;;;12.70;99.90;;;;;;5012108;28;20265;-73
2023/01/29 08:46:23;;;;;;;6.00;1.50;;;12.70;99.90;;;;;;5020601;28;20180;-73
2023/01/29 08:48:54;;;;;;;2.17;1.40;;;12.70;99.90;;;;;;5032684;28;20691;-73
2023/01/29 08:51:26;;;;;;;7.70;1.47;;;12.70;99.90;;;;;;5003353;28;20560;-73
2023/01/29 08:53:53;;;;;;;4.33;1.57;;;12.80;99.90;;;;;;5030669;28;20188;-73
2023/01/29 08:56:27;;;;;;;8.20;1.20;;;12.80;99.90;;;;;;5029178;28;20671;-72
2023/01/29 08:58:59;;;;;;;8.00;2.40;;;12.90;99.90;;;;;;5029440;28;20643;-73
2023/01/29 09:04:24;;;;;;;6.40;1.60;;;13.20;99.90;;;;;;5005135;28;20263;-72
2023/01/29 09:07:07;;;;;;;;;;;;;;;;;;;;;
2023/01/29 09:09:36;;;;;;;7.67;2.30;;;13.30;99.90;;;;;;5014828;28;20188;-73
2023/01/29 09:12:11;;;;;;;5.07;1.70;;;13.20;99.90;;;;;;5031119;28;20250;-72
2023/01/29 09:14:42;;;;;;;6.40;1.73;;;13.10;99.90;;;;;;5014734;28;20241;-73
2023/01/29 09:17:20;;;;;;;4.03;1.90;;;13.10;99.90;;;;;;5020455;28;20551;-73
2023/01/29 09:19:52;;;;;;;4.17;1.43;;;13.30;99.90;;;;;;5017103;28;20210;-73
2023/01/29 09:22:22;;;;;;;2.80;1.13;;;13.50;99.90;;;;;;5030453;28;20282;-73
2023/01/29 09:24:49;;;;;;;6.40;1.50;;;13.50;99.90;;;;;;5030120;28;20188;-73
2023/01/29 09:27:16;;;;;;;6.67;1.20;;;13.60;99.90;;;;;;5010876;28;20620;-73
2023/01/29 09:29:45;;;;;;;5.70;1.37;;;13.60;99.90;;;;;;5033191;28;20204;-73
2023/01/29 09:32:13;;;;;;;5.53;1.40;;;13.70;99.90;;;;;;4997367;28;20192;-72
2023/01/29 09:34:43;;;;;;;3.83;1.43;;;13.70;99.90;;;;;;5034604;28;20679;-73
2023/01/29 09:37:16;;;;;;;4.43;1.50;;;13.60;99.90;;;;;;5033928;28;20272;-73
2023/01/29 09:39:46;;;;;;;4.73;1.77;;;13.70;99.90;;;;;;5031018;28;20291;-73
2023/01/29 09:43:18;;;;;;;4.33;1.40;;;13.90;99.90;;;;;;5017826;28;20196;-73
2023/01/29 09:46:15;;;;;;;7.37;1.70;;;14.00;99.90;;;;;;5023933;28;20210;-72
2023/01/29 09:48:46;;;;;;;6.47;1.80;;;13.90;99.90;;;;;;5021612;28;20596;-73
2023/01/29 09:51:34;;;;;;;3.03;1.40;;;13.90;99.90;;;;;;5028725;28;20196;-73
2023/01/29 09:54:28;;;;;;;3.33;1.30;;;14.00;99.90;;;;;;5037129;28;20803;-73
2023/01/29 09:57:00;;;;;;;7.17;1.50;;;14.00;99.90;;;;;;5033282;28;20192;-73
2023/01/29 09:59:31;;;;;;;3.60;1.30;;;13.80;99.90;;;;;;5005109;28;20195;-73
2023/01/29 10:02:42;;;;;;;6.53;1.63;;;13.70;99.90;;;;;;5034983;28;20200;-73
2023/01/29 10:05:46;;;;;;;5.17;1.20;;;13.70;99.90;;;;;;5002481;28;20183;-73
2023/01/29 10:08:39;;;;;;;4.13;1.40;;;13.70;99.90;;;;;;5019477;28;20883;-73
2023/01/29 10:11:22;;;;;;;5.97;1.70;;;13.80;99.90;;;;;;5018358;28;20184;-73
2023/01/29 10:14:15;;;;;;;4.47;1.37;;;14.00;99.90;;;;;;5031589;28;20192;-73
2023/01/29 10:17:20;;;;;;;6.00;1.60;;;14.10;99.90;;;;;;5020373;28;20650;-72
2023/01/29 10:20:21;;;;;;;6.63;1.40;;;14.20;99.90;;;;;;5017749;28;20199;-72
2023/01/29 10:23:30;;;;;;;2.57;1.00;;;14.20;99.90;;;;;;5033674;28;20231;-73
2023/01/29 10:25:59;;;;;;;2.20;1.10;;;14.30;99.90;;;;;;5008198;28;20639;-73
2023/01/29 10:28:52;;;;;;;;;;;;;;;;;;;;;
2023/01/29 10:31:38;;;;;;;4.57;1.40;;;14.40;99.90;;;;;;5030166;28;20183;-74
2023/01/29 10:34:47;;;;;;;3.73;1.53;;;14.20;99.90;;;;;;5021493;28;20184;-73
2023/01/29 10:37:36;;;;;;;4.60;1.27;;;14.20;99.90;;;;;;5033224;28;20184;-73
2023/01/29 10:40:37;;;;;;;5.23;1.20;;;14.40;99.90;;;;;;5028601;28;20648;-73
2023/01/29 10:44:01;;;;;;;9.23;1.30;;;14.60;99.90;;;;;;5025535;28;20256;-72
2023/01/29 10:46:55;;;;;;;4.13;2.17;;;14.60;99.90;;;;;;5018186;28;20211;-73
2023/01/29 10:49:44;;;;;;;5.67;1.90;;;14.80;99.90;;;;;;5013497;28;20223;-73
2023/01/29 10:52:54;;;;;;;;;;;;;;;;;;;;;
2023/01/29 10:56:02;;;;;;;5.63;1.63;;;15.80;99.90;;;;;;5028252;28;20595;-73
2023/01/29 10:59:14;;;;;;;;;;;;;;;;;;;;;
2023/01/29 11:01:47;;;;;;;8.23;1.93;;;15.70;99.90;;;;;;5028317;28;20195;-73
2023/01/29 11:04:16;;;;;;;4.87;1.30;;;15.50;99.90;;;;;;5017548;28;20266;-73
2023/01/29 11:06:43;;;;;;;8.43;1.43;;;15.10;99.90;;;;;;5030112;28;20534;-73
2023/01/29 11:09:47;;;;;;;3.37;1.27;;;15.00;99.90;;;;;;5026549;28;20199;-73
2023/01/29 11:12:26;;;;;;;4.93;1.20;;;14.80;99.90;;;;;;5017953;28;20202;-73
2023/01/29 11:15:16;;;;;;;5.17;1.30;;;14.60;99.90;;;;;;5037796;28;20264;-73
2023/01/29 11:18:18;;;;;;;3.50;1.30;;;14.80;99.90;;;;;;5029345;28;20195;-74
2023/01/29 11:21:00;;;;;;;2.30;1.13;;;14.80;99.90;;;;;;5013848;28;20556;-71
2023/01/29 11:23:35;;;;;;;3.73;1.27;;;15.00;99.90;;;;;;5037533;28;20187;-72
2023/01/29 11:26:22;;;;;;;4.90;1.33;;;15.40;99.90;;;;;;5015180;28;20249;-73
2023/01/29 11:28:52;;;;;;;4.90;1.40;;;15.80;99.90;;;;;;5029536;28;20200;-73
2023/01/29 11:31:37;;;;;;;3.73;1.33;;;16.10;99.90;;;;;;4998682;28;20187;-73
2023/01/29 11:34:28;;;;;;;5.03;1.40;;;15.90;99.90;;;;;;5015326;28;20191;-73
2023/01/29 11:37:15;;;;;;;2.93;1.10;;;15.70;99.90;;;;;;5030727;28;20190;-73
2023/01/29 11:39:49;;;;;;;6.90;1.50;;;15.60;99.90;;;;;;5009712;28;20215;-71
2023/01/29 11:42:26;;;;;;;2.97;1.20;;;15.50;99.90;;;;;;5027128;28;20572;-72
2023/01/29 11:44:54;;;;;;;5.03;1.30;;;15.50;99.90;;;;;;5034917;28;20183;-72
2023/01/29 11:47:48;;;;;;;4.40;1.33;;;15.20;99.90;;;;;;5017746;28;20188;-74
2023/01/29 11:50:36;;;;;;;1.70;1.00;;;14.90;99.90;;;;;;5015967;28;20180;-74
2023/01/29 11:53:20;;;;;;;4.57;1.63;;;14.60;99.90;;;;;;5025656;28;20246;-73
2023/01/29 11:55:54;;;;;;;4.90;1.60;;;14.60;99.90;;;;;;5025284;28;20198;-74
2023/01/29 11:58:38;;;;;;;3.43;1.27;;;14.70;99.90;;;;;;4995699;28;20179;-74
2023/01/29 12:01:09;;;;;;;4.00;1.10;;;14.60;99.90;;;;;;5022575;28;20195;-73
2023/01/29 12:03:52;;;;;;;6.80;1.90;;;14.80;99.90;;;;;;5019864;28;20184;-74
2023/01/29 12:06:47;;;;;;;6.17;1.13;;;14.80;99.90;;;;;;5024065;28;20199;-73
2023/01/29 12:09:27;;;;;;;4.47;1.30;;;14.80;99.90;;;;;;5027625;28;20644;-74
2023/01/29 12:11:57;;;;;;;4.20;1.47;;;14.60;99.90;;;;;;5030923;28;20227;-74
2023/01/29 12:14:40;;;;;;;2.87;1.30;;;14.40;99.90;;;;;;5017002;28;20737;-72
2023/01/29 12:17:19;;;;;;;5.83;1.77;;;14.40;99.90;;;;;;5020907;28;20248;-72
2023/01/29 12:20:15;;;;;;;5.50;1.17;;;14.40;99.90;;;;;;5026146;28;21134;-72
2023/01/29 12:23:31;;;;;;;2.67;1.23;;;14.60;99.90;;;;;;5043393;28;20549;-73
2023/01/29 12:26:09;;;;;;;9.33;1.40;;;14.50;99.90;;;;;;5028674;28;20176;-72
2023/01/29 12:29:00;;;;;;;2.53;1.00;;;14.60;99.90;;;;;;5049144;28;20198;-72
2023/01/29 12:32:13;;;;;;;3.07;1.03;;;14.70;99.90;;;;;;5025983;28;20823;-72
2023/01/29 12:35:09;;;;;;;3.10;1.20;;;14.80;99.90;;;;;;4989385;28;20732;-72
2023/01/29 12:38:04;;;;;;;3.00;1.10;;;14.90;99.90;;;;;;5033315;28;20203;-72
2023/01/29 12:40:47;;;;;;;3.83;1.07;;;14.90;99.90;;;;;;5030305;28;20280;-72
2023/01/29 12:43:36;;;;;;;3.97;1.30;;;14.90;99.90;;;;;;5007791;28;20758;-71
2023/01/29 12:46:17;;;;;;;3.73;1.27;;;14.60;99.90;;;;;;5039555;28;20191;-72
2023/01/29 12:48:51;;;;;;;4.60;1.60;;;14.40;99.90;;;;;;5024584;28;20794;-71
2023/01/29 12:51:35;;;;;;;5.07;1.50;;;14.30;99.90;;;;;;5033244;28;20594;-72
2023/01/29 12:54:32;;;;;;;;;;;;;;;;;;;;;
2023/01/29 12:57:05;;;;;;;4.33;1.30;;;14.10;99.90;;;;;;5035638;28;20200;-72
2023/01/29 12:59:48;;;;;;;5.47;1.60;;;14.10;99.90;;;;;;5036449;28;20653;-71
2023/01/29 13:02:39;;;;;;;3.17;1.50;;;14.00;99.90;;;;;;5038229;28;20286;-71
2023/01/29 13:05:37;;;;;;;2.70;1.20;;;14.00;99.90;;;;;;5030850;28;20199;-71
2023/01/29 13:08:28;;;;;;;7.33;1.53;;;14.00;99.90;;;;;;5012263;28;20791;-71
2023/01/29 13:11:15;;;;;;;3.53;1.30;;;13.90;99.90;;;;;;5029792;28;20196;-72
2023/01/29 13:14:00;;;;;;;5.00;1.23;;;13.90;99.90;;;;;;5036499;28;20661;-72
2023/01/29 13:16:39;;;;;;;5.17;1.30;;;13.80;99.90;;;;;;5035336;28;20260;-72
2023/01/29 13:19:42;;;;;;;3.67;1.10;;;13.90;99.90;;;;;;5029872;28;20207;-72
2023/01/29 13:22:28;;;;;;;5.83;1.30;;;13.90;99.90;;;;;;5027965;28;20614;-71
2023/01/29 13:25:10;;;;;;;;;;;;;;;;;;;;;
2023/01/29 13:27:47;;;;;;;6.13;1.90;;;13.90;99.90;;;;;;5021918;28;20195;-71
2023/01/29 13:30:46;;;;;;;5.53;1.60;;;14.00;99.90;;;;;;5028369;28;20542;-71
2023/01/29 13:33:24;;;;;;;4.57;1.33;;;14.00;99.90;;;;;;5010071;28;20196;-71
2023/01/29 13:35:59;;;;;;;4.00;1.47;;;14.10;99.90;;;;;;5033388;28;20269;-71
2023/01/29 13:38:32;;;;;;;4.20;1.30;;;14.10;99.90;;;;;;5022792;28;20200;-71
2023/01/29 13:41:11;;;;;;;1.80;1.10;;;14.00;99.90;;;;;;5020310;28;20253;-71
2023/01/29 13:43:49;;;;;;;6.50;1.20;;;13.80;99.90;;;;;;5027960;28;20188;-71
2023/01/29 13:46:21;;;;;;;7.70;1.33;;;13.80;99.90;;;;;;5031888;28;20185;-71
2023/01/29 13:48:54;;;;;;;4.53;1.43;;;13.70;99.90;;;;;;5022190;28;20540;-71
2023/01/29 13:51:38;;;;;;;4.57;1.30;;;13.70;99.90;;;;;;5002120;28;20198;-73
2023/01/29 13:54:34;;;;;;;13.20;1.30;;;13.60;99.90;;;;;;5022490;28;21086;-71
2023/01/29 13:57:06;;;;;;;4.23;1.20;;;13.50;99.90;;;;;;5020278;28;20195;-71
2023/01/29 14:00:00;;;;;;;7.03;1.23;;;13.40;99.90;;;;;;5036262;28;20270;-71
2023/01/29 14:02:37;;;;;;;7.30;1.27;;;13.30;99.90;;;;;;5022754;28;20218;-71
2023/01/29 14:05:42;;;;;;;2.40;1.20;;;13.30;99.90;;;;;;5026016;28;20184;-72
2023/01/29 14:08:39;;;;;;;2.30;1.30;;;13.10;99.90;;;;;;5027322;28;20202;-71
2023/01/29 14:11:29;;;;;;;3.00;1.17;;;13.10;99.90;;;;;;5000858;28;20192;-71
2023/01/29 14:13:57;;;;;;;3.90;1.30;;;13.10;99.90;;;;;;5029274;28;20227;-72
2023/01/29 14:16:37;;;;;;;6.07;1.60;;;13.10;99.90;;;;;;5012398;28;20275;-71
2023/01/29 14:19:35;;;;;;;5.07;1.70;;;13.10;99.90;;;;;;5015030;28;20204;-71
2023/01/29 14:22:05;;;;;;;8.97;1.63;;;13.10;99.90;;;;;;5027122;28;20191;-71
2023/01/29 14:24:33;;;;;;;3.83;1.40;;;13.20;99.90;;;;;;5002025;28;20191;-71
2023/01/29 14:27:03;;;;;;;5.63;1.40;;;13.20;99.90;;;;;;5010080;28;21023;-71
2023/01/29 14:29:40;;;;;;;7.97;1.57;;;13.20;99.90;;;;;;5036540;28;20529;-71